createdAt,value
2022-11-16T00:02:14.986Z,17.15
2022-11-16T00:04:42.159Z,19.60
2022-11-16T00:07:10.551Z,17.58
2022-11-16T00:09:41.644Z,16.23
2022-11-16T00:14:42.824Z,17.40
2022-11-16T00:17:11.686Z,18.85
2022-11-16T00:19:39.283Z,18.73
2022-11-16T00:22:06.250Z,19.10
2022-11-16T00:24:36.039Z,17.38
2022-11-16T00:27:06.835Z,16.80
2022-11-16T00:29:33.956Z,17.50
2022-11-16T00:32:01.239Z,17.88
2022-11-16T00:34:28.227Z,14.35
2022-11-16T00:36:57.756Z,16.95
2022-11-16T00:39:25.371Z,16.20
2022-11-16T00:41:55.501Z,16.08
2022-11-16T00:44:23.571Z,17.02
2022-11-16T00:46:50.596Z,17.40
2022-11-16T00:49:20.182Z,18.13
2022-11-16T00:51:47.004Z,16.45
2022-11-16T00:54:13.834Z,17.40
2022-11-16T00:56:40.884Z,17.65
2022-11-16T00:59:07.956Z,16.63
2022-11-16T01:01:35.372Z,18.23
2022-11-16T01:04:02.228Z,16.90
2022-11-16T01:06:29.466Z,16.77
2022-11-16T01:08:56.863Z,14.07
2022-11-16T01:11:42.519Z,16.30
2022-11-16T01:14:10.440Z,18.50
2022-11-16T01:16:37.646Z,16.83
2022-11-16T01:19:05.687Z,16.67
2022-11-16T01:21:33.230Z,16.83
2022-11-16T01:24:00.791Z,15.15
2022-11-16T01:26:28.347Z,16.05
2022-11-16T01:28:55.352Z,16.42
2022-11-16T01:31:23.115Z,15.20
2022-11-16T01:33:51.320Z,15.90
2022-11-16T01:36:19.511Z,17.02
2022-11-16T01:38:50.778Z,15.48
2022-11-16T01:41:21.060Z,19.98
2022-11-16T01:44:02.697Z,16.17
2022-11-16T01:46:31.301Z,16.80
2022-11-16T01:49:06.045Z,16.05
2022-11-16T01:51:34.248Z,16.77
2022-11-16T01:54:05.901Z,16.73
2022-11-16T01:56:33.562Z,17.23
2022-11-16T01:59:00.438Z,17.30
2022-11-16T02:01:27.550Z,18.88
2022-11-16T02:03:54.380Z,16.52
2022-11-16T02:06:33.140Z,17.13
2022-11-16T02:09:39.974Z,16.65
2022-11-16T02:12:09.549Z,15.48
2022-11-16T02:14:49.930Z,18.13
2022-11-16T02:17:36.765Z,18.33
2022-11-16T02:20:31.488Z,20.13
2022-11-16T02:23:13.506Z,19.88
2022-11-16T02:26:20.066Z,20.02
2022-11-16T02:28:46.948Z,20.40
2022-11-16T02:31:29.618Z,17.75
2022-11-16T02:33:57.715Z,20.75
2022-11-16T02:36:25.847Z,19.67
2022-11-16T02:39:01.358Z,19.38
2022-11-16T02:41:32.579Z,17.88
2022-11-16T02:44:08.768Z,19.75
2022-11-16T02:46:44.381Z,20.52
2022-11-16T02:49:17.745Z,17.60
2022-11-16T02:51:51.086Z,18.63
2022-11-16T02:54:20.549Z,22.20
2022-11-16T02:57:03.222Z,17.70
2022-11-16T02:59:54.208Z,17.92
2022-11-16T03:02:46.915Z,22.65
2022-11-16T03:05:39.947Z,21.90
2022-11-16T03:08:19.345Z,21.13
2022-11-16T03:11:10.397Z,20.73
2022-11-16T03:13:41.123Z,20.95
2022-11-16T03:16:22.158Z,23.15
2022-11-16T03:18:52.301Z,24.00
2022-11-16T03:21:29.938Z,22.38
2022-11-16T03:23:57.876Z,22.15
2022-11-16T03:26:30.865Z,19.83
2022-11-16T03:29:05.783Z,21.27
2022-11-16T03:31:42.243Z,20.60
2022-11-16T03:34:16.558Z,24.13
2022-11-16T03:36:49.947Z,19.88
2022-11-16T03:39:33.398Z,23.45
2022-11-16T03:42:12.465Z,19.83
2022-11-16T03:44:39.269Z,19.10
2022-11-16T03:47:06.871Z,22.40
2022-11-16T03:49:33.857Z,21.27
2022-11-16T03:52:00.835Z,23.52
2022-11-16T03:54:27.783Z,21.85
2022-11-16T03:56:54.862Z,22.25
2022-11-16T03:59:21.537Z,23.75
2022-11-16T04:01:50.726Z,23.23
2022-11-16T04:04:36.421Z,21.52
2022-11-16T04:07:21.742Z,23.92
2022-11-16T04:10:07.071Z,22.63
2022-11-16T04:12:52.940Z,21.50
2022-11-16T04:15:42.931Z,22.63
2022-11-16T04:18:29.192Z,22.20
2022-11-16T04:21:15.743Z,20.70
2022-11-16T04:24:01.459Z,21.17
2022-11-16T04:26:57.144Z,20.30
2022-11-16T04:29:25.700Z,20.23
2022-11-16T04:32:11.456Z,22.08
2022-11-16T04:34:56.816Z,20.50
2022-11-16T04:37:41.931Z,23.77
2022-11-16T04:40:12.319Z,20.00
2022-11-16T04:42:39.451Z,21.42
2022-11-16T04:45:25.069Z,24.85
2022-11-16T04:47:52.703Z,22.80
2022-11-16T04:50:20.658Z,21.95
2022-11-16T04:52:47.717Z,20.27
2022-11-16T04:55:14.799Z,22.17
2022-11-16T04:57:41.852Z,23.80
2022-11-16T05:00:09.180Z,21.23
2022-11-16T05:02:37.328Z,22.05
2022-11-16T05:05:04.593Z,24.98
2022-11-16T05:07:31.743Z,21.80
2022-11-16T05:09:59.740Z,19.98
2022-11-16T05:12:28.596Z,22.45
2022-11-16T05:15:15.487Z,23.85
2022-11-16T05:17:42.911Z,21.65
2022-11-16T05:20:29.353Z,25.42
2022-11-16T05:22:58.132Z,21.33
2022-11-16T05:25:25.084Z,23.15
2022-11-16T05:27:57.452Z,23.38
2022-11-16T05:30:24.145Z,25.10
2022-11-16T05:32:51.175Z,22.73
2022-11-16T05:35:18.118Z,22.67
2022-11-16T05:37:45.128Z,22.95
2022-11-16T05:40:16.231Z,24.42
2022-11-16T05:45:18.439Z,21.48
2022-11-16T05:47:49.907Z,21.52
2022-11-16T05:50:19.937Z,23.80
2022-11-16T05:52:46.936Z,23.58
2022-11-16T05:55:17.121Z,24.65
2022-11-16T05:57:44.063Z,24.90
2022-11-16T06:00:12.984Z,23.80
2022-11-16T06:02:39.480Z,22.85
2022-11-16T06:05:06.043Z,25.67
2022-11-16T06:07:34.143Z,26.88
2022-11-16T06:10:00.633Z,22.25
2022-11-16T06:12:26.977Z,23.13
2022-11-16T06:14:53.357Z,22.48
2022-11-16T06:17:19.688Z,23.92
2022-11-16T06:19:46.129Z,23.23
2022-11-16T06:22:12.534Z,23.65
2022-11-16T06:24:38.919Z,21.20
2022-11-16T06:27:05.351Z,23.50
2022-11-16T06:29:31.798Z,23.88
2022-11-16T06:31:58.186Z,24.52
2022-11-16T06:34:25.070Z,22.88
2022-11-16T06:36:51.584Z,23.00
2022-11-16T06:39:18.047Z,21.90
2022-11-16T06:41:44.477Z,24.83
2022-11-16T06:44:11.084Z,22.83
2022-11-16T06:46:37.498Z,25.38
2022-11-16T06:49:04.093Z,23.40
2022-11-16T06:51:30.673Z,23.80
2022-11-16T06:53:57.127Z,23.23
2022-11-16T06:56:23.806Z,24.80
2022-11-16T06:58:53.265Z,24.70
2022-11-16T07:01:20.410Z,23.73
2022-11-16T07:03:46.966Z,26.08
2022-11-16T07:06:14.356Z,24.73
2022-11-16T07:08:41.298Z,22.70
2022-11-16T07:11:09.550Z,23.02
2022-11-16T07:13:37.774Z,23.90
2022-11-16T07:16:06.732Z,24.40
2022-11-16T07:18:35.610Z,22.52
2022-11-16T07:21:07.439Z,26.40
2022-11-16T07:23:34.556Z,24.67
2022-11-16T07:26:02.670Z,22.02
2022-11-16T07:28:29.708Z,24.13
2022-11-16T07:31:01.637Z,22.70
2022-11-16T07:34:37.303Z,22.13
2022-11-16T07:38:17.803Z,27.30
2022-11-16T07:41:53.425Z,23.33
2022-11-16T07:45:32.264Z,23.05
2022-11-16T07:48:23.916Z,22.23
2022-11-16T07:50:50.420Z,23.80
2022-11-16T07:53:17.176Z,22.55
2022-11-16T07:55:43.621Z,22.73
2022-11-16T07:58:12.769Z,25.25
2022-11-16T08:00:39.347Z,24.30
2022-11-16T08:03:06.627Z,23.42
2022-11-16T08:05:33.113Z,24.73
2022-11-16T08:07:59.608Z,33.63
2022-11-16T08:10:26.123Z,25.67
2022-11-16T08:12:53.257Z,22.98
2022-11-16T08:15:19.811Z,22.48
2022-11-16T08:17:47.754Z,24.98
2022-11-16T08:20:14.509Z,23.95
2022-11-16T08:22:41.021Z,24.58
2022-11-16T08:25:07.994Z,23.55
2022-11-16T08:27:35.460Z,22.92
2022-11-16T08:30:04.780Z,23.75
2022-11-16T08:32:31.550Z,31.50
2022-11-16T08:34:58.071Z,25.42
2022-11-16T08:37:26.023Z,24.48
2022-11-16T08:39:52.503Z,24.83
2022-11-16T08:42:18.946Z,26.08
2022-11-16T08:44:45.847Z,27.27
2022-11-16T08:47:12.772Z,25.13
2022-11-16T08:49:39.297Z,24.88
2022-11-16T08:52:06.188Z,25.85
2022-11-16T08:54:32.698Z,25.90
2022-11-16T08:56:59.344Z,25.48
2022-11-16T08:59:25.892Z,22.90
2022-11-16T09:01:52.567Z,23.95
2022-11-16T09:04:19.630Z,22.58
2022-11-16T09:06:46.307Z,22.30
2022-11-16T09:09:12.971Z,19.25
2022-11-16T09:11:39.578Z,21.08
2022-11-16T09:14:06.282Z,21.35
2022-11-16T09:16:32.793Z,23.55
2022-11-16T09:18:59.353Z,22.63
2022-11-16T09:21:27.724Z,20.70
2022-11-16T09:23:55.495Z,21.83
2022-11-16T09:26:23.563Z,23.17
2022-11-16T09:28:58.841Z,20.90
2022-11-16T09:31:27.623Z,24.80
2022-11-16T09:33:58.676Z,21.50
2022-11-16T09:36:27.448Z,22.42
2022-11-16T09:39:19.431Z,23.52
2022-11-16T09:41:52.394Z,22.95
2022-11-16T09:44:57.508Z,21.38
2022-11-16T09:47:52.025Z,20.17
2022-11-16T09:50:53.117Z,18.92
2022-11-16T09:53:34.250Z,19.05
2022-11-16T09:56:19.181Z,18.17
2022-11-16T09:59:02.741Z,17.92
2022-11-16T10:01:48.301Z,17.10
2022-11-16T10:04:44.353Z,20.00
2022-11-16T10:07:45.815Z,19.60
2022-11-16T10:10:52.341Z,18.63
2022-11-16T10:14:15.735Z,18.20
2022-11-16T10:17:23.157Z,17.40
2022-11-16T10:19:58.593Z,19.88
2022-11-16T10:22:44.052Z,17.52
2022-11-16T10:25:51.168Z,19.45
2022-11-16T10:28:20.721Z,19.30
2022-11-16T10:31:09.196Z,18.25
2022-11-16T10:33:38.151Z,18.67
2022-11-16T10:36:12.985Z,17.88
2022-11-16T10:38:41.126Z,16.90
2022-11-16T10:41:21.350Z,17.00
2022-11-16T10:43:48.707Z,15.73
2022-11-16T10:46:39.716Z,15.95
2022-11-16T10:49:27.172Z,17.08
2022-11-16T10:51:53.994Z,14.85
2022-11-16T10:54:20.475Z,14.80
2022-11-16T10:56:49.742Z,14.38
2022-11-16T10:59:19.394Z,14.13
2022-11-16T11:01:53.165Z,13.07
2022-11-16T11:04:31.320Z,16.67
2022-11-16T11:07:30.603Z,14.43
2022-11-16T11:09:57.165Z,14.90
2022-11-16T11:12:41.188Z,14.25
2022-11-16T11:15:26.178Z,14.30
2022-11-16T11:18:16.807Z,17.92
2022-11-16T11:20:46.863Z,14.05
2022-11-16T11:23:16.397Z,14.80
2022-11-16T11:25:56.711Z,15.50
2022-11-16T11:28:32.577Z,17.08
2022-11-16T11:31:17.320Z,14.75
2022-11-16T11:33:51.102Z,18.40
2022-11-16T11:36:24.026Z,15.43
2022-11-16T11:39:03.467Z,17.70
2022-11-16T11:41:37.019Z,16.85
2022-11-16T11:44:04.756Z,17.40
2022-11-16T11:47:18.344Z,18.88
2022-11-16T11:49:33.616Z,18.15
2022-11-16T11:52:09.359Z,16.17
2022-11-16T11:54:45.671Z,17.75
2022-11-16T11:57:15.630Z,15.80
2022-11-16T11:59:42.301Z,18.92
2022-11-16T12:02:23.984Z,16.15
2022-11-16T12:05:29.902Z,16.63
2022-11-16T12:08:05.664Z,16.42
2022-11-16T12:10:48.806Z,15.50
2022-11-16T12:13:36.958Z,16.45
2022-11-16T12:16:47.695Z,18.92
2022-11-16T12:19:43.785Z,17.98
2022-11-16T12:22:26.407Z,17.92
2022-11-16T12:25:12.396Z,20.42
2022-11-16T12:28:08.553Z,19.08
2022-11-16T12:30:49.047Z,19.25
2022-11-16T12:33:50.228Z,20.30
2022-11-16T12:36:48.283Z,21.35
2022-11-16T12:39:33.223Z,21.63
2022-11-16T12:41:59.707Z,20.02
2022-11-16T12:44:31.896Z,21.67
2022-11-16T12:47:13.549Z,18.95
2022-11-16T12:49:59.233Z,21.23
2022-11-16T12:52:41.381Z,21.35
2022-11-16T12:55:52.880Z,19.35
2022-11-16T12:58:23.537Z,20.65
2022-11-16T13:01:16.288Z,22.58
2022-11-16T13:04:09.699Z,19.30
2022-11-16T13:06:50.874Z,19.40
2022-11-16T13:09:26.390Z,22.52
2022-11-16T13:12:00.642Z,19.42
2022-11-16T13:14:40.091Z,19.88
2022-11-16T13:17:07.787Z,20.33
2022-11-16T13:19:42.037Z,19.38
2022-11-16T13:22:18.005Z,19.27
2022-11-16T13:25:17.871Z,18.98
2022-11-16T13:27:53.966Z,22.60
2022-11-16T13:30:24.797Z,19.05
2022-11-16T13:33:22.566Z,21.55
2022-11-16T13:35:52.548Z,20.95
2022-11-16T13:38:53.827Z,17.38
2022-11-16T13:41:33.782Z,21.55
2022-11-16T13:44:02.061Z,17.75
2022-11-16T13:46:55.906Z,18.88
2022-11-16T13:49:33.790Z,20.23
2022-11-16T13:52:31.748Z,18.92
2022-11-16T13:55:01.614Z,16.25
2022-11-16T13:57:34.112Z,19.23
2022-11-16T14:00:00.595Z,18.85
2022-11-16T14:02:37.440Z,20.23
2022-11-16T14:05:06.662Z,20.58
2022-11-16T14:07:43.264Z,18.75
2022-11-16T14:10:11.450Z,20.08
2022-11-16T14:12:38.245Z,36.58
2022-11-16T14:15:32.035Z,21.10
2022-11-16T14:18:00.820Z,18.10
2022-11-16T14:20:37.251Z,20.33
2022-11-16T14:23:22.500Z,19.95
2022-11-16T14:25:53.307Z,19.80
2022-11-16T14:28:34.866Z,21.88
2022-11-16T14:31:20.243Z,17.40
2022-11-16T14:33:52.355Z,17.13
2022-11-16T14:36:36.403Z,19.35
2022-11-16T14:39:37.239Z,29.52
2022-11-16T14:42:16.319Z,19.13
2022-11-16T14:44:44.015Z,21.58
2022-11-16T14:47:24.819Z,21.90
2022-11-16T14:49:52.208Z,23.30
2022-11-16T14:52:29.196Z,20.77
2022-11-16T14:55:00.669Z,20.95
2022-11-16T14:57:27.260Z,21.77
2022-11-16T15:00:19.585Z,22.77
2022-11-16T15:02:59.150Z,24.13
2022-11-16T15:05:33.732Z,23.77
2022-11-16T15:08:03.743Z,22.95
2022-11-16T15:10:30.395Z,22.98
2022-11-16T15:12:57.860Z,23.70
2022-11-16T15:15:30.453Z,25.45
2022-11-16T15:17:59.767Z,26.63
2022-11-16T15:20:32.256Z,29.45
2022-11-16T15:23:00.344Z,26.05
2022-11-16T15:25:34.858Z,26.52
2022-11-16T15:28:13.247Z,26.88
2022-11-16T15:30:40.558Z,27.10
2022-11-16T15:33:15.532Z,26.80
2022-11-16T15:35:42.610Z,27.98
2022-11-16T15:38:22.991Z,29.25
2022-11-16T15:40:51.817Z,25.98
2022-11-16T15:43:20.155Z,34.30
2022-11-16T15:45:47.304Z,28.30
2022-11-16T15:48:22.589Z,34.47
2022-11-16T15:51:05.027Z,30.20
2022-11-16T15:53:40.577Z,32.42
2022-11-16T15:56:25.068Z,36.72
2022-11-16T15:58:53.919Z,31.13
2022-11-16T16:01:22.169Z,31.85
2022-11-16T16:04:04.214Z,33.70
2022-11-16T16:06:49.731Z,36.70
2022-11-16T16:09:32.988Z,36.20
2022-11-16T16:12:20.861Z,42.63
2022-11-16T16:14:49.297Z,40.35
2022-11-16T16:17:29.923Z,41.03
2022-11-16T16:20:09.193Z,40.78
2022-11-16T16:22:40.084Z,43.08
2022-11-16T16:25:07.416Z,39.92
2022-11-16T16:27:39.542Z,36.78
2022-11-16T16:30:07.426Z,37.13
2022-11-16T16:32:37.062Z,36.63
2022-11-16T16:35:08.590Z,56.75
2022-11-16T16:37:38.619Z,76.45
2022-11-16T16:40:05.999Z,52.10
2022-11-16T16:42:32.702Z,49.42
2022-11-16T16:45:00.398Z,53.10
2022-11-16T16:47:29.540Z,53.55
2022-11-16T16:49:56.019Z,54.92
2022-11-16T16:52:23.107Z,52.83
2022-11-16T16:54:50.434Z,57.33
2022-11-16T16:57:18.745Z,84.13
2022-11-16T16:59:48.313Z,34.75
2022-11-16T17:02:16.230Z,37.38
2022-11-16T17:04:44.057Z,58.35
2022-11-16T17:07:10.767Z,65.53
2022-11-16T17:09:37.359Z,58.50
2022-11-16T17:12:04.199Z,35.90
2022-11-16T17:14:30.748Z,35.85
2022-11-16T17:16:57.486Z,39.92
2022-11-16T17:19:24.435Z,43.55
2022-11-16T17:21:52.143Z,37.65
2022-11-16T17:24:18.817Z,29.90
2022-11-16T17:26:48.455Z,42.20
2022-11-16T17:29:15.376Z,30.90
2022-11-16T17:31:44.898Z,31.27
2022-11-16T17:34:13.829Z,34.97
2022-11-16T17:36:41.402Z,32.40
2022-11-16T17:39:08.024Z,32.28
2022-11-16T17:41:34.927Z,33.22
2022-11-16T17:44:01.489Z,31.75
2022-11-16T17:46:29.424Z,31.42
2022-11-16T17:48:56.438Z,31.25
2022-11-16T17:51:25.073Z,32.67
2022-11-16T17:53:52.667Z,30.77
2022-11-16T17:56:22.018Z,29.48
2022-11-16T17:58:52.118Z,28.80
2022-11-16T18:01:19.191Z,31.15
2022-11-16T18:03:45.951Z,32.88
2022-11-16T18:06:15.243Z,37.97
2022-11-16T18:08:43.733Z,37.80
2022-11-16T18:11:11.777Z,34.47
2022-11-16T18:13:42.344Z,32.50
2022-11-16T18:16:13.628Z,31.52
2022-11-16T18:18:40.280Z,36.67
2022-11-16T18:21:08.207Z,34.35
2022-11-16T18:23:38.285Z,37.95
2022-11-16T18:26:14.038Z,37.92
2022-11-16T18:28:41.236Z,36.85
2022-11-16T18:31:13.281Z,33.28
2022-11-16T18:33:40.127Z,34.38
2022-11-16T18:36:08.331Z,34.38
2022-11-16T18:38:36.464Z,47.47
2022-11-16T18:41:25.191Z,41.30
2022-11-16T18:43:54.333Z,53.60
2022-11-16T18:46:23.777Z,31.75
2022-11-16T18:48:51.426Z,28.10
2022-11-16T18:51:22.388Z,30.45
2022-11-16T18:53:50.191Z,27.70
2022-11-16T18:56:17.788Z,27.95
2022-11-16T18:58:52.471Z,26.98
2022-11-16T19:01:24.635Z,30.90
2022-11-16T19:03:53.554Z,27.58
2022-11-16T19:06:21.169Z,27.42
2022-11-16T19:08:55.552Z,26.70
2022-11-16T19:11:23.457Z,29.77
2022-11-16T19:13:54.411Z,29.02
2022-11-16T19:18:48.314Z,32.58
2022-11-16T19:21:18.635Z,32.72
2022-11-16T19:23:47.794Z,33.85
2022-11-16T19:26:16.051Z,30.25
2022-11-16T19:28:45.013Z,29.23
2022-11-16T19:31:14.005Z,26.70
2022-11-16T19:33:42.008Z,27.83
2022-11-16T19:36:11.632Z,32.97
2022-11-16T19:38:39.225Z,36.35
2022-11-16T19:41:07.678Z,36.13
2022-11-16T19:43:35.281Z,34.72
2022-11-16T19:46:04.221Z,33.75
2022-11-16T19:48:32.813Z,34.75
2022-11-16T19:51:08.151Z,32.30
2022-11-16T19:53:36.234Z,30.80
2022-11-16T19:56:05.015Z,30.13
2022-11-16T19:58:33.235Z,42.90
2022-11-16T20:01:08.000Z,69.63
2022-11-16T20:03:35.513Z,27.35
2022-11-16T20:06:16.492Z,27.38
2022-11-16T20:08:48.357Z,31.67
2022-11-16T20:11:24.305Z,36.63
2022-11-16T20:13:55.925Z,27.95
2022-11-16T20:16:25.664Z,26.70
2022-11-16T20:18:53.577Z,26.58
2022-11-16T20:21:26.128Z,29.20
2022-11-16T20:23:53.523Z,30.05
2022-11-16T20:26:25.205Z,30.58
2022-11-16T20:28:53.022Z,26.35
2022-11-16T20:31:28.850Z,27.25
2022-11-16T20:34:00.461Z,25.17
2022-11-16T20:36:30.499Z,28.10
2022-11-16T20:38:59.032Z,25.98
2022-11-16T20:41:28.318Z,23.15
2022-11-16T20:43:57.298Z,25.30
2022-11-16T20:46:27.289Z,27.40
2022-11-16T20:48:55.950Z,28.55
2022-11-16T20:51:23.299Z,26.88
2022-11-16T20:53:50.731Z,28.48
2022-11-16T20:56:19.530Z,29.42
2022-11-16T20:58:47.185Z,32.60
2022-11-16T21:01:16.823Z,31.55
2022-11-16T21:03:47.139Z,30.58
2022-11-16T21:06:14.466Z,35.67
2022-11-16T21:08:41.877Z,33.13
2022-11-16T21:11:16.780Z,34.67
2022-11-16T21:14:06.076Z,41.00
2022-11-16T21:16:33.897Z,37.97
2022-11-16T21:19:01.382Z,37.78
2022-11-16T21:21:28.478Z,29.17
2022-11-16T21:23:55.255Z,29.08
2022-11-16T21:26:26.974Z,29.38
2022-11-16T21:28:55.479Z,32.10
2022-11-16T21:31:25.719Z,29.70
2022-11-16T21:33:53.396Z,28.55
2022-11-16T21:36:25.296Z,29.35
2022-11-16T21:38:52.919Z,29.27
2022-11-16T21:41:22.314Z,29.73
2022-11-16T21:43:49.020Z,30.92
2022-11-16T21:46:22.007Z,29.80
2022-11-16T21:48:50.924Z,26.67
2022-11-16T21:51:19.641Z,26.65
2022-11-16T21:53:46.387Z,30.42
2022-11-16T21:56:15.561Z,27.05
2022-11-16T21:58:48.173Z,26.70
2022-11-16T22:01:16.198Z,21.80
2022-11-16T22:03:43.269Z,22.25
2022-11-16T22:06:31.812Z,29.40
2022-11-16T22:08:58.371Z,22.42
2022-11-16T22:11:24.919Z,20.45
2022-11-16T22:13:51.481Z,19.67
2022-11-16T22:16:19.613Z,19.48
2022-11-16T22:18:46.478Z,18.00
2022-11-16T22:21:13.262Z,23.38
2022-11-16T22:23:40.039Z,24.45
2022-11-16T22:26:09.324Z,18.75
2022-11-16T22:28:36.742Z,18.48
2022-11-16T22:31:06.007Z,19.98
2022-11-16T22:33:33.699Z,19.73
2022-11-16T22:36:00.966Z,19.02
2022-11-16T22:38:27.589Z,19.25
2022-11-16T22:40:56.494Z,18.58
2022-11-16T22:43:25.378Z,22.00
2022-11-16T22:45:51.832Z,21.02
2022-11-16T22:48:18.325Z,19.77
2022-11-16T22:50:44.785Z,19.13
2022-11-16T22:53:11.224Z,19.40
2022-11-16T22:55:38.599Z,21.63
2022-11-16T22:58:05.796Z,22.15
2022-11-16T23:00:39.003Z,20.75
2022-11-16T23:03:08.519Z,23.55
2022-11-16T23:05:34.978Z,21.60
2022-11-16T23:08:01.442Z,19.92
2022-11-16T23:10:50.903Z,19.55
2022-11-16T23:13:36.143Z,20.98
2022-11-16T23:16:05.911Z,23.40
2022-11-16T23:18:32.370Z,21.77
2022-11-16T23:21:17.432Z,21.02
2022-11-16T23:24:03.072Z,20.05
2022-11-16T23:26:47.824Z,20.75
2022-11-16T23:29:14.533Z,21.83
2022-11-16T23:31:40.995Z,21.15
2022-11-16T23:34:07.395Z,23.35
2022-11-16T23:36:34.350Z,22.77
2022-11-16T23:39:00.746Z,22.27
2022-11-16T23:41:45.781Z,20.60
2022-11-16T23:44:12.292Z,25.35
2022-11-16T23:46:38.773Z,28.15
2022-11-16T23:49:05.378Z,28.23
2022-11-16T23:51:31.778Z,22.60
2022-11-16T23:54:01.287Z,22.85
2022-11-16T23:56:27.685Z,22.40
2022-11-16T23:58:57.374Z,27.00
